Time;durP1;ratioP1;P1;durP2;ratioP2;P2;SDS_P1;SDS_P2;PMS_P1;PMS_P2;Temp;Humidity;BMP_temperature;BMP_pressure;BME280_temperature;BME280_humidity;BME280_pressure;Samples;Min_cycle;Max_cycle;Signal;HPM_P1;HPM_P2
2024/01/30 00:01:58;;;;;;;3.80;3.50;;;16.30;58.80;17.40;101940.00;;;;5044767;28;20180;-44
2024/01/30 00:04:24;;;;;;;4.40;4.00;;;16.20;58.20;17.40;101944.00;;;;5042155;28;20187;-46
2024/01/30 00:06:51;;;;;;;4.33;3.93;;;16.20;58.20;17.40;101938.00;;;;5040899;28;20216;-44
2024/01/30 00:09:16;;;;;;;3.67;3.37;;;16.20;58.20;17.40;101933.00;;;;5042141;28;20213;-44
2024/01/30 00:11:42;;;;;;;4.10;3.70;;;16.20;58.20;17.40;101935.00;;;;5041764;28;20203;-45
2024/01/30 00:14:08;;;;;;;4.27;3.83;;;16.20;58.20;17.30;101933.00;;;;5045835;28;20183;-45
2024/01/30 00:16:33;;;;;;;4.30;3.90;;;16.20;58.20;17.30;101937.00;;;;5042488;28;20187;-44
2024/01/30 00:19:01;;;;;;;4.37;3.93;;;16.10;58.20;17.30;101933.00;;;;5044491;28;20203;-44
2024/01/30 00:21:27;;;;;;;4.07;3.77;;;16.20;58.20;17.30;101930.00;;;;5044744;28;20176;-44
2024/01/30 00:23:53;;;;;;;4.40;4.00;;;16.10;58.10;17.30;101931.00;;;;5043332;28;20183;-44
2024/01/30 00:26:19;;;;;;;4.20;3.90;;;16.10;58.10;17.30;101940.00;;;;5042360;28;20641;-44
2024/01/30 00:28:45;;;;;;;4.47;4.07;;;16.10;58.10;17.30;101943.00;;;;5042105;28;20201;-44
2024/01/30 00:31:12;;;;;;;4.80;3.90;;;16.10;58.10;17.30;101940.00;;;;5045879;28;20744;-44
2024/01/30 00:33:41;;;;;;;4.30;3.90;;;16.10;58.00;17.30;101923.00;;;;5043382;28;20212;-44
2024/01/30 00:36:08;;;;;;;4.27;3.97;;;16.10;58.10;17.30;101925.00;;;;5045210;28;20183;-55
2024/01/30 00:38:34;;;;;;;4.10;3.70;;;16.10;58.10;17.20;101930.00;;;;5056968;28;20235;-45
2024/01/30 00:41:00;;;;;;;4.23;3.83;;;16.10;58.20;17.20;101937.00;;;;5047005;28;20201;-45
2024/01/30 00:43:26;;;;;;;4.23;3.93;;;16.00;58.10;17.20;101921.00;;;;5046891;28;20185;-46
2024/01/30 00:45:54;;;;;;;4.47;4.07;;;16.00;58.10;17.20;101914.00;;;;5042846;28;20179;-44
2024/01/30 00:48:20;;;;;;;4.50;4.10;;;16.00;58.00;17.20;101922.00;;;;5047507;28;20207;-46
2024/01/30 00:50:45;;;;;;;4.67;4.10;;;16.00;58.00;17.20;101917.00;;;;5047974;28;20258;-46
2024/01/30 00:53:11;;;;;;;4.33;4.00;;;16.00;58.00;17.20;101924.00;;;;5053137;28;20236;-44
2024/01/30 00:55:37;;;;;;;4.40;4.00;;;16.00;58.00;17.20;101919.00;;;;5042972;28;20668;-44
2024/01/30 00:58:03;;;;;;;5.03;4.53;;;16.00;58.00;17.10;101920.00;;;;5044598;28;20210;-45
2024/01/30 01:00:29;;;;;;;4.40;4.00;;;16.00;58.00;17.10;101912.00;;;;5043826;28;20189;-45
2024/01/30 01:02:58;;;;;;;4.50;4.10;;;15.90;58.00;17.10;101917.00;;;;5042026;28;20187;-45
2024/01/30 01:05:24;;;;;;;4.07;3.77;;;15.90;58.00;17.10;101917.00;;;;5043098;28;20183;-44
2024/01/30 01:07:50;;;;;;;4.70;4.30;;;15.90;58.00;17.10;101919.00;;;;5041219;28;20290;-45
2024/01/30 01:10:17;;;;;;;4.50;4.10;;;16.00;58.10;17.10;101912.00;;;;5044354;28;20258;-45
2024/01/30 01:12:43;;;;;;;4.40;4.00;;;15.90;58.00;17.10;101935.00;;;;5041096;28;20602;-45
2024/01/30 01:15:12;;;;;;;4.60;4.20;;;15.90;58.00;17.10;101924.00;;;;5043732;28;20183;-45
2024/01/30 01:17:40;;;;;;;4.70;4.30;;;15.90;58.00;17.10;101921.00;;;;5041640;28;20213;-45
2024/01/30 01:20:07;;;;;;;4.60;4.20;;;15.90;58.00;17.00;101927.00;;;;5042183;28;20741;-45
2024/01/30 01:22:32;;;;;;;4.77;4.33;;;15.90;58.00;17.00;101926.00;;;;5042266;28;20646;-44
2024/01/30 01:25:01;;;;;;;4.40;4.00;;;15.90;58.00;17.00;101929.00;;;;5040917;28;20184;-45
2024/01/30 01:27:27;;;;;;;4.53;4.13;;;15.80;58.00;17.00;101923.00;;;;5040767;28;20202;-44
2024/01/30 01:29:53;;;;;;;4.30;3.90;;;15.80;58.10;17.00;101937.00;;;;5041531;28;20550;-45
2024/01/30 01:32:18;;;;;;;4.20;3.90;;;15.80;58.20;17.00;101932.00;;;;5043674;28;20297;-45
2024/01/30 01:34:44;;;;;;;4.07;3.77;;;15.80;58.20;17.00;101920.00;;;;5038644;28;20717;-45
2024/01/30 01:37:10;;;;;;;4.70;4.30;;;15.70;58.20;16.90;101929.00;;;;5043648;28;20210;-44
2024/01/30 01:39:36;;;;;;;4.40;4.00;;;15.70;58.20;16.90;101923.00;;;;5041536;28;20175;-44
2024/01/30 01:42:01;;;;;;;4.63;4.23;;;15.70;58.10;16.90;101929.00;;;;5042496;28;20213;-45
2024/01/30 01:44:27;;;;;;;4.63;4.00;;;15.70;58.20;16.90;101926.00;;;;5043288;28;20565;-45
2024/01/30 01:46:54;;;;;;;4.67;4.33;;;15.70;58.20;16.90;101930.00;;;;5042507;28;20522;-44
2024/01/30 01:49:27;;;;;;;4.37;4.07;;;15.70;58.20;16.90;101931.00;;;;5043104;28;20661;-44
2024/01/30 01:51:53;;;;;;;4.27;3.87;;;15.60;58.20;16.80;101920.00;;;;5041308;28;20684;-44
2024/01/30 01:54:19;;;;;;;4.60;4.20;;;15.60;58.30;16.80;101918.00;;;;5044010;28;20178;-45
2024/01/30 01:56:45;;;;;;;5.00;4.50;;;15.60;58.30;16.80;101923.00;;;;5024968;28;20187;-45
2024/01/30 01:59:11;;;;;;;4.47;4.07;;;15.60;58.30;16.80;101910.00;;;;5044823;28;20186;-45
2024/01/30 02:01:37;;;;;;;4.60;4.20;;;15.60;58.30;16.80;101909.00;;;;5041206;28;20185;-45
2024/01/30 02:04:02;;;;;;;4.90;4.40;;;15.60;58.40;16.80;101922.00;;;;5042338;28;20198;-45
2024/01/30 02:06:28;;;;;;;4.50;4.10;;;15.60;58.40;16.80;101907.00;;;;5042027;28;20179;-45
2024/01/30 02:08:54;;;;;;;5.20;4.20;;;15.50;58.30;16.80;101928.00;;;;5040976;28;20208;-44
2024/01/30 02:11:21;;;;;;;4.73;4.33;;;15.50;58.40;16.70;101893.00;;;;5043144;28;20201;-44
2024/01/30 02:13:47;;;;;;;4.77;4.37;;;15.50;58.40;16.70;101912.00;;;;5038594;28;20644;-44
2024/01/30 02:16:12;;;;;;;4.50;4.10;;;15.50;58.40;16.70;101908.00;;;;5042229;28;20178;-44
2024/01/30 02:18:43;;;;;;;5.07;4.57;;;15.50;58.40;16.70;101901.00;;;;5040320;28;20202;-45
2024/01/30 02:21:08;;;;;;;6.20;4.20;;;15.50;58.40;16.70;101907.00;;;;5043026;28;20186;-45
2024/01/30 02:23:34;;;;;;;4.60;4.20;;;15.50;58.40;16.60;101907.00;;;;5039771;28;20584;-45
2024/01/30 02:26:00;;;;;;;4.50;4.10;;;15.50;58.40;16.70;101910.00;;;;5041606;28;20179;-45
2024/01/30 02:28:26;;;;;;;4.07;3.67;;;15.50;58.50;16.60;101900.00;;;;5022182;28;20226;-44
2024/01/30 02:30:51;;;;;;;4.50;4.10;;;15.50;58.50;16.60;101896.00;;;;5050086;28;20187;-45
2024/01/30 02:33:17;;;;;;;4.50;4.10;;;15.50;58.50;16.60;101900.00;;;;5045614;28;20732;-45
2024/01/30 02:35:43;;;;;;;4.70;4.30;;;15.40;58.30;16.60;101898.00;;;;5040894;28;20179;-46
2024/01/30 02:38:09;;;;;;;5.07;4.23;;;15.40;58.30;16.60;101892.00;;;;5043541;28;20226;-44
2024/01/30 02:40:34;;;;;;;4.37;3.97;;;15.40;58.40;16.60;101891.00;;;;5042493;28;20183;-45
2024/01/30 02:43:01;;;;;;;4.70;4.30;;;15.40;58.40;16.60;101897.00;;;;5044115;28;20206;-45
2024/01/30 02:45:27;;;;;;;4.80;4.40;;;15.40;58.40;16.50;101895.00;;;;5048787;28;20187;-44
2024/01/30 02:47:53;;;;;;;4.47;4.17;;;15.40;58.50;16.50;101893.00;;;;5040227;28;20214;-45
2024/01/30 02:50:19;;;;;;;4.30;3.90;;;15.40;58.50;16.50;101884.00;;;;5042607;28;20213;-45
2024/01/30 02:52:44;;;;;;;4.67;4.27;;;15.40;58.50;16.60;101892.00;;;;5037978;28;20247;-46
2024/01/30 02:55:10;;;;;;;5.00;4.13;;;15.40;58.50;16.60;101892.00;;;;5041199;28;20179;-44
2024/01/30 02:57:36;;;;;;;4.77;4.37;;;15.30;58.50;16.60;101879.00;;;;5039236;28;20202;-45
2024/01/30 03:00:03;;;;;;;4.70;4.20;;;15.40;58.50;16.50;101878.00;;;;5041233;28;20222;-44
2024/01/30 03:02:29;;;;;;;4.90;4.50;;;15.30;58.50;16.50;101895.00;;;;5039940;28;20263;-44
2024/01/30 03:04:55;;;;;;;4.57;4.17;;;15.30;58.50;16.50;101876.00;;;;5034902;28;20194;-44
2024/01/30 03:07:20;;;;;;;5.00;4.50;;;15.30;58.50;16.50;101872.00;;;;5042543;28;20291;-44
2024/01/30 03:09:46;;;;;;;4.97;4.50;;;15.30;58.50;16.50;101869.00;;;;5039189;28;20192;-43
2024/01/30 03:12:12;;;;;;;4.53;4.13;;;15.30;58.50;16.50;101874.00;;;;5042280;28;20217;-45
2024/01/30 03:14:38;;;;;;;4.80;4.40;;;15.30;58.50;16.50;101877.00;;;;5039700;28;20236;-44
2024/01/30 03:17:03;;;;;;;4.87;4.47;;;15.30;58.50;16.50;101865.00;;;;5039652;28;20573;-45
2024/01/30 03:19:29;;;;;;;4.40;4.00;;;15.30;58.40;16.40;101865.00;;;;5040999;28;20209;-44
2024/01/30 03:21:55;;;;;;;4.67;4.27;;;15.30;58.40;16.40;101857.00;;;;5040150;28;20206;-45
2024/01/30 03:24:20;;;;;;;4.43;4.03;;;15.30;58.40;16.40;101875.00;;;;5042024;28;20182;-45
2024/01/30 03:26:46;;;;;;;4.47;4.07;;;15.30;58.40;16.40;101869.00;;;;5035967;28;20297;-45
2024/01/30 03:29:12;;;;;;;4.60;4.20;;;15.30;58.50;16.40;101870.00;;;;5041209;28;20260;-44
2024/01/30 03:31:39;;;;;;;4.40;4.00;;;15.20;58.40;16.40;101859.00;;;;5039802;28;20189;-45
2024/01/30 03:34:04;;;;;;;4.47;4.07;;;15.20;58.40;16.40;101852.00;;;;5041370;28;20664;-44
2024/01/30 03:36:32;;;;;;;4.43;4.03;;;15.20;58.40;16.30;101851.00;;;;5040892;28;20253;-45
2024/01/30 03:38:58;;;;;;;4.03;3.73;;;15.20;58.50;16.30;101862.00;;;;5040627;28;20684;-45
2024/01/30 03:41:24;;;;;;;4.47;4.07;;;15.20;58.40;16.30;101851.00;;;;5040671;28;20205;-45
2024/01/30 03:43:50;;;;;;;4.43;4.03;;;15.20;58.50;16.30;101853.00;;;;5041087;28;20215;-45
2024/01/30 03:46:16;;;;;;;4.43;4.07;;;15.20;58.30;16.30;101857.00;;;;5051671;28;20186;-46
2024/01/30 03:48:41;;;;;;;4.23;3.73;;;15.20;58.20;16.30;101842.00;;;;5039388;28;20566;-45
2024/01/30 03:51:08;;;;;;;4.27;3.87;;;15.20;58.10;16.30;101849.00;;;;5041573;28;20190;-45
2024/01/30 03:53:33;;;;;;;4.37;3.97;;;15.20;58.10;16.30;101847.00;;;;5040264;28;20249;-44
2024/01/30 03:55:59;;;;;;;4.67;4.20;;;15.30;58.10;16.30;101843.00;;;;5040107;28;20208;-45
2024/01/30 03:58:25;;;;;;;4.07;3.77;;;15.20;58.10;16.30;101848.00;;;;5041165;28;20197;-45
2024/01/30 04:00:50;;;;;;;4.57;4.17;;;15.20;58.00;16.30;101844.00;;;;5039543;28;20179;-44
2024/01/30 04:03:16;;;;;;;4.47;4.07;;;15.30;58.00;16.30;101844.00;;;;5041658;28;20179;-46
2024/01/30 04:05:42;;;;;;;4.43;4.03;;;15.20;57.90;16.30;101850.00;;;;5039357;28;20218;-43
2024/01/30 04:08:08;;;;;;;4.33;4.03;;;15.20;58.00;16.30;101845.00;;;;5044161;28;20198;-45
2024/01/30 04:10:34;;;;;;;4.33;3.93;;;15.20;58.10;16.30;101845.00;;;;5041124;28;20182;-45
2024/01/30 04:13:00;;;;;;;4.10;3.67;;;15.10;58.20;16.30;101846.00;;;;5039743;28;20203;-45
2024/01/30 04:15:26;;;;;;;4.50;4.10;;;15.10;58.20;16.30;101852.00;;;;5042093;28;20174;-45
2024/01/30 04:17:51;;;;;;;4.23;3.83;;;15.10;58.20;16.30;101840.00;;;;5040160;28;20715;-44
2024/01/30 04:20:17;;;;;;;4.10;3.70;;;15.20;58.10;16.30;101839.00;;;;5043018;28;20181;-44
2024/01/30 04:22:47;;;;;;;4.43;4.00;;;15.20;57.90;16.30;101833.00;;;;5043970;28;20771;-45
2024/01/30 04:25:13;;;;;;;4.00;3.70;;;15.20;57.70;16.30;101837.00;;;;5037614;28;20262;-47
2024/01/30 04:27:39;;;;;;;3.97;3.67;;;15.30;57.80;16.30;101831.00;;;;5039495;28;20210;-45
2024/01/30 04:30:05;;;;;;;4.27;3.87;;;15.30;57.60;16.30;101830.00;;;;5043130;28;20194;-44
2024/01/30 04:32:32;;;;;;;4.03;3.63;;;15.30;57.60;16.30;101839.00;;;;5042575;28;20211;-44
2024/01/30 04:34:57;;;;;;;4.13;3.57;;;15.30;57.50;16.30;101835.00;;;;5044674;28;20180;-46
2024/01/30 04:37:23;;;;;;;4.33;3.83;;;15.30;58.10;16.30;101826.00;;;;5050485;28;20255;-45
2024/01/30 04:39:49;;;;;;;4.63;3.67;;;15.20;57.70;16.30;101826.00;;;;5042628;28;20326;-45
2024/01/30 04:42:15;;;;;;;3.80;3.50;;;15.20;57.90;16.30;101848.00;;;;5046092;28;20198;-44
2024/01/30 04:44:40;;;;;;;4.10;3.70;;;15.20;57.80;16.30;101842.00;;;;5038249;28;20179;-44
2024/01/30 04:47:08;;;;;;;3.80;3.50;;;15.30;57.90;16.30;101848.00;;;;5045270;28;20786;-45
2024/01/30 04:49:34;;;;;;;4.63;3.70;;;15.30;58.00;16.30;101844.00;;;;5044617;28;20190;-45
2024/01/30 04:52:00;;;;;;;3.90;3.60;;;15.30;58.20;16.30;101844.00;;;;5044942;28;20211;-45
2024/01/30 04:54:26;;;;;;;4.30;3.63;;;15.30;58.20;16.30;101843.00;;;;5045481;28;20544;-46
2024/01/30 04:56:52;;;;;;;5.07;3.60;;;15.30;58.20;16.30;101836.00;;;;5044360;28;20179;-46
2024/01/30 04:59:18;;;;;;;4.00;3.70;;;15.30;58.20;16.30;101837.00;;;;5047069;28;20802;-46
2024/01/30 05:01:43;;;;;;;4.10;3.73;;;15.30;58.20;16.30;101832.00;;;;5041881;28;20266;-44
2024/01/30 05:04:09;;;;;;;4.43;3.60;;;15.30;58.10;16.30;101836.00;;;;5034213;28;20182;-44
2024/01/30 05:06:35;;;;;;;4.20;3.70;;;15.30;58.80;16.30;101834.00;;;;5042646;28;20186;-44
2024/01/30 05:09:01;;;;;;;4.07;3.67;;;15.20;58.00;16.30;101840.00;;;;5043340;28;20269;-44
2024/01/30 05:11:27;;;;;;;5.20;3.63;;;15.30;58.10;16.30;101838.00;;;;5043785;28;20199;-44
2024/01/30 05:13:52;;;;;;;4.67;3.60;;;15.30;58.10;16.30;101837.00;;;;5042020;28;20210;-46
2024/01/30 05:16:18;;;;;;;4.00;3.60;;;15.30;58.10;16.30;101838.00;;;;5041678;28;20886;-45
2024/01/30 05:18:44;;;;;;;5.43;3.50;;;15.30;58.10;16.30;101837.00;;;;5042461;28;20234;-45
2024/01/30 05:21:10;;;;;;;4.50;3.63;;;15.30;58.10;16.30;101837.00;;;;5034932;28;20246;-45
2024/01/30 05:23:36;;;;;;;4.83;3.67;;;15.30;58.10;16.30;101835.00;;;;5026955;28;20757;-45
2024/01/30 05:26:02;;;;;;;6.20;3.47;;;15.20;58.20;16.30;101822.00;;;;5044428;28;20247;-44
2024/01/30 05:28:29;;;;;;;5.73;3.57;;;15.30;58.40;16.30;101819.00;;;;5042951;28;20752;-46
2024/01/30 05:30:56;;;;;;;5.40;3.70;;;15.20;58.50;16.30;101837.00;;;;5033624;28;20245;-44
2024/01/30 05:33:22;;;;;;;6.80;3.93;;;15.20;58.70;16.30;101828.00;;;;5043770;28;20287;-44
2024/01/30 05:35:48;;;;;;;5.47;3.60;;;15.20;58.70;16.30;101827.00;;;;5040719;28;20176;-44
2024/01/30 05:38:15;;;;;;;6.23;3.43;;;15.20;58.70;16.30;101828.00;;;;5044732;28;20718;-44
2024/01/30 05:40:41;;;;;;;8.03;3.83;;;15.20;58.70;16.30;101827.00;;;;5042285;28;20183;-43
2024/01/30 05:43:07;;;;;;;5.47;3.87;;;15.20;58.70;16.30;101820.00;;;;5044478;28;20186;-44
2024/01/30 05:45:35;;;;;;;4.47;3.80;;;15.20;58.70;16.30;101823.00;;;;5042883;28;20225;-44
2024/01/30 05:48:00;;;;;;;10.00;4.17;;;15.20;58.80;16.30;101823.00;;;;5039242;28;20760;-45
2024/01/30 05:50:26;;;;;;;8.97;4.00;;;15.20;58.70;16.30;101820.00;;;;5043380;28;20186;-43
2024/01/30 05:52:52;;;;;;;9.97;4.20;;;15.20;58.80;16.30;101823.00;;;;5041021;28;20685;-44
2024/01/30 05:55:18;;;;;;;18.37;4.57;;;15.20;59.00;16.30;101815.00;;;;5026853;28;20187;-44
2024/01/30 05:57:44;;;;;;;10.97;4.40;;;15.20;59.10;16.30;101813.00;;;;5041739;28;20455;-44
2024/01/30 06:00:10;;;;;;;10.07;4.37;;;15.20;59.10;16.30;101817.00;;;;5044348;28;20178;-44
2024/01/30 06:02:36;;;;;;;8.93;4.33;;;15.20;59.00;16.30;101820.00;;;;5042918;28;20174;-44
2024/01/30 06:05:02;;;;;;;10.13;4.17;;;15.20;58.90;16.30;101823.00;;;;5042998;28;20197;-45
2024/01/30 06:07:27;;;;;;;13.53;4.60;;;15.20;58.90;16.30;101827.00;;;;5043523;28;20208;-45
2024/01/30 06:09:53;;;;;;;12.20;4.00;;;15.20;58.80;16.30;101831.00;;;;5042144;28;20825;-45
2024/01/30 06:12:19;;;;;;;11.67;4.37;;;15.20;58.80;16.30;101829.00;;;;5044510;28;20680;-44
2024/01/30 06:14:44;;;;;;;8.23;3.90;;;15.20;58.80;16.00;101825.00;;;;5043975;28;20182;-45
2024/01/30 06:17:11;;;;;;;10.23;4.13;;;15.20;58.80;16.30;101825.00;;;;5051844;28;20202;-44
2024/01/30 06:19:39;;;;;;;8.40;4.13;;;15.10;58.70;16.30;101819.00;;;;5045329;28;20240;-45
2024/01/30 06:22:04;;;;;;;8.57;3.83;;;15.10;58.80;16.30;101826.00;;;;5045764;28;20708;-45
2024/01/30 06:24:30;;;;;;;7.90;3.83;;;15.20;58.90;16.30;101819.00;;;;5043571;28;20274;-44
2024/01/30 06:26:56;;;;;;;9.03;4.07;;;15.20;59.00;16.30;101832.00;;;;5039878;28;20183;-44
2024/01/30 06:29:22;;;;;;;10.63;3.90;;;15.10;59.70;16.20;101815.00;;;;5050496;28;20544;-45
2024/01/30 06:31:47;;;;;;;7.63;3.80;;;15.00;59.20;16.30;101820.00;;;;5047810;28;20190;-44
2024/01/30 06:34:13;;;;;;;6.03;3.70;;;15.00;59.30;16.30;101826.00;;;;5044605;28;20568;-45
2024/01/30 06:36:39;;;;;;;7.30;3.50;;;15.10;59.40;16.20;101820.00;;;;5041798;28;20178;-45
2024/01/30 06:39:05;;;;;;;7.43;3.93;;;15.10;59.30;16.30;101818.00;;;;5042659;28;20289;-45
2024/01/30 06:41:31;;;;;;;8.67;4.20;;;15.30;59.30;16.30;101816.00;;;;5042720;28;20668;-44
2024/01/30 06:43:57;;;;;;;9.60;4.03;;;15.40;59.30;16.30;101807.00;;;;5041751;28;20187;-43
2024/01/30 06:46:22;;;;;;;5.80;3.53;;;15.50;59.10;16.40;101806.00;;;;5043544;28;20179;-44
2024/01/30 06:48:48;;;;;;;4.33;3.40;;;15.70;58.90;16.40;101805.00;;;;5040577;28;20784;-44
2024/01/30 06:51:14;;;;;;;5.27;3.57;;;15.70;58.70;16.50;101811.00;;;;5043792;28;20186;-45
2024/01/30 06:53:39;;;;;;;5.43;3.43;;;15.90;58.70;16.60;101810.00;;;;5041409;28;20207;-45
2024/01/30 06:56:06;;;;;;;5.60;3.17;;;16.00;58.50;16.70;101813.00;;;;5042892;28;20174;-44
2024/01/30 06:58:32;;;;;;;4.90;3.60;;;16.10;58.50;16.70;101813.00;;;;5041877;28;20198;-45
2024/01/30 07:00:58;;;;;;;4.67;3.60;;;16.20;58.40;16.80;101803.00;;;;5042105;28;20201;-51
2024/01/30 07:03:24;;;;;;;7.77;3.50;;;16.20;58.40;16.80;101810.00;;;;5038448;28;20202;-44
2024/01/30 07:05:49;;;;;;;3.77;3.20;;;16.20;58.50;16.90;101804.00;;;;5045641;28;20256;-45
2024/01/30 07:08:19;;;;;;;5.37;3.47;;;16.30;58.50;16.90;101815.00;;;;5038519;28;20202;-44
2024/01/30 07:10:44;;;;;;;4.13;3.03;;;16.30;58.50;17.00;101814.00;;;;5040631;28;20261;-44
2024/01/30 07:13:16;;;;;;;5.47;3.53;;;16.40;58.50;17.00;101811.00;;;;5043512;28;20688;-44
2024/01/30 07:15:42;;;;;;;3.90;3.40;;;16.40;58.50;17.00;101810.00;;;;5040976;28;20673;-44
2024/01/30 07:18:09;;;;;;;3.67;3.23;;;16.40;58.70;17.10;101818.00;;;;5042767;28;20280;-44
2024/01/30 07:20:35;;;;;;;4.30;3.40;;;16.40;58.70;17.10;101823.00;;;;5041867;28;20240;-43
2024/01/30 07:23:01;;;;;;;5.23;3.50;;;16.40;58.70;17.10;101826.00;;;;5041025;28;20191;-44
2024/01/30 07:25:26;;;;;;;4.97;3.27;;;16.40;58.70;17.10;101823.00;;;;5037982;28;20187;-44
2024/01/30 07:27:56;;;;;;;4.40;3.60;;;16.40;58.80;17.10;101831.00;;;;5037765;28;20242;-44
2024/01/30 07:30:23;;;;;;;4.13;3.00;;;16.50;58.90;17.20;101836.00;;;;5043117;28;20187;-44
2024/01/30 07:32:48;;;;;;;6.00;3.20;;;16.50;58.90;17.20;101839.00;;;;5038863;28;20214;-45
2024/01/30 07:35:14;;;;;;;3.30;3.00;;;16.50;58.90;17.20;101839.00;;;;5041786;28;20187;-45
2024/01/30 07:37:40;;;;;;;3.73;3.17;;;16.50;59.00;17.20;101848.00;;;;5040712;28;20199;-44
2024/01/30 07:40:06;;;;;;;3.47;2.90;;;16.50;59.10;17.20;101842.00;;;;5042796;28;20184;-44
2024/01/30 07:42:33;;;;;;;4.27;3.27;;;16.40;59.10;17.20;101849.00;;;;5042174;28;20193;-44
2024/01/30 07:44:59;;;;;;;3.70;3.00;;;16.40;59.10;17.30;101845.00;;;;5038413;28;20179;-44
2024/01/30 07:47:25;;;;;;;4.67;3.20;;;16.40;59.20;17.20;101848.00;;;;5039247;28;20209;-44
2024/01/30 07:49:51;;;;;;;3.67;3.17;;;16.50;59.40;17.20;101849.00;;;;5040216;28;20187;-43
2024/01/30 07:52:17;;;;;;;5.67;3.00;;;16.50;59.30;17.20;101852.00;;;;5041808;28;20810;-44
2024/01/30 07:54:49;;;;;;;4.30;3.33;;;16.50;59.50;17.20;101857.00;;;;5040567;28;20267;-44
2024/01/30 08:01:26;;;;;;;3.50;3.00;;;16.50;59.50;17.20;101850.00;;;;5039070;28;20197;-45
2024/01/30 08:03:52;;;;;;;4.17;3.20;;;16.50;59.40;17.30;101856.00;;;;5038882;28;20193;-45
2024/01/30 08:06:18;;;;;;;5.87;3.07;;;16.50;59.30;17.30;101869.00;;;;5043878;28;20207;-45
2024/01/30 08:08:43;;;;;;;4.90;3.40;;;16.50;59.30;17.30;101860.00;;;;5035703;28;20208;-45
2024/01/30 08:11:09;;;;;;;3.07;2.80;;;16.60;59.40;17.30;101853.00;;;;5046125;28;20189;-45
2024/01/30 08:13:35;;;;;;;6.43;3.03;;;16.60;59.50;17.30;101855.00;;;;5037565;28;20228;-45
2024/01/30 08:16:01;;;;;;;4.37;3.23;;;16.50;59.40;17.30;101788.00;;;;5047584;28;20196;-45
2024/01/30 08:18:26;;;;;;;5.23;3.00;;;16.50;59.50;17.30;101870.00;;;;5041763;28;20207;-45
2024/01/30 08:20:52;;;;;;;3.60;3.30;;;16.50;59.50;17.30;101865.00;;;;5024380;28;20192;-44
2024/01/30 08:23:18;;;;;;;3.40;2.80;;;16.50;59.50;17.40;101855.00;;;;5041356;28;20183;-45
2024/01/30 08:25:44;;;;;;;3.33;2.77;;;16.50;59.50;17.40;101857.00;;;;5044335;28;20540;-45
2024/01/30 08:28:09;;;;;;;4.27;3.00;;;16.50;59.50;17.40;101843.00;;;;5042632;28;20244;-45
2024/01/30 08:30:35;;;;;;;3.77;3.00;;;16.60;59.60;17.40;101855.00;;;;5043449;28;20237;-46
2024/01/30 08:33:01;;;;;;;3.47;3.17;;;16.60;59.60;17.40;101845.00;;;;5049525;28;20209;-45
2024/01/30 08:35:27;;;;;;;3.10;2.80;;;16.60;59.70;17.40;101847.00;;;;5040426;28;20807;-44
2024/01/30 08:37:54;;;;;;;3.57;2.80;;;16.60;59.90;17.40;101846.00;;;;5042988;28;20197;-45
2024/01/30 08:40:20;;;;;;;3.53;2.80;;;16.60;59.90;17.40;101845.00;;;;5044105;28;20227;-44
2024/01/30 08:42:45;;;;;;;3.20;2.90;;;16.60;59.90;17.40;101862.00;;;;5043173;28;20209;-44
2024/01/30 08:45:11;;;;;;;6.23;3.07;;;16.60;59.90;17.40;101856.00;;;;5045426;28;20188;-44
2024/01/30 08:47:37;;;;;;;3.47;2.80;;;16.60;60.20;17.40;101863.00;;;;5042907;28;20204;-45
2024/01/30 08:50:03;;;;;;;3.70;3.00;;;16.60;60.30;17.40;101865.00;;;;5039409;28;20656;-45
2024/01/30 08:52:29;;;;;;;5.43;3.27;;;16.60;60.40;17.50;101877.00;;;;5044232;28;20202;-44
2024/01/30 08:54:55;;;;;;;6.80;2.90;;;16.60;60.30;17.50;101879.00;;;;5043697;28;20232;-45
2024/01/30 08:57:21;;;;;;;4.17;3.00;;;16.60;60.40;17.50;101880.00;;;;5044917;28;20208;-45
2024/01/30 08:59:47;;;;;;;5.00;3.10;;;16.60;60.50;17.50;101881.00;;;;5038196;28;20179;-44
2024/01/30 09:02:16;;;;;;;6.00;3.07;;;16.60;60.40;17.50;101890.00;;;;5041523;28;20182;-45
2024/01/30 09:04:41;;;;;;;5.20;3.00;;;16.60;60.30;17.50;101888.00;;;;5043109;28;20201;-44
2024/01/30 09:07:09;;;;;;;4.20;3.00;;;16.60;60.30;17.50;101889.00;;;;5043881;28;20231;-44
2024/01/30 09:09:34;;;;;;;4.67;3.10;;;16.60;60.30;17.50;101884.00;;;;5042740;28;20253;-44
2024/01/30 09:12:06;;;;;;;3.43;2.80;;;16.60;60.40;17.50;101893.00;;;;5039467;28;20281;-45
2024/01/30 09:14:32;;;;;;;3.10;2.80;;;16.60;60.30;17.50;101904.00;;;;5044835;28;20221;-44
2024/01/30 09:16:58;;;;;;;3.97;2.83;;;16.60;60.20;17.20;101904.00;;;;5034414;28;20257;-44
2024/01/30 09:19:24;;;;;;;3.10;2.80;;;16.60;60.30;17.50;101909.00;;;;5044831;28;20217;-44
2024/01/30 09:21:49;;;;;;;3.67;3.10;;;16.60;60.30;17.50;101905.00;;;;5042545;28;20670;-45
2024/01/30 09:24:15;;;;;;;3.73;2.50;;;16.60;60.30;17.50;101902.00;;;;5045568;28;20181;-45
2024/01/30 09:26:41;;;;;;;3.07;2.77;;;16.60;60.40;17.50;101911.00;;;;5039897;28;20192;-45
2024/01/30 09:29:06;;;;;;;3.20;2.80;;;16.60;60.30;17.50;101906.00;;;;5042316;28;20208;-45
2024/01/30 09:31:32;;;;;;;4.53;3.17;;;16.60;60.10;17.50;101917.00;;;;5039076;28;20182;-45
2024/01/30 09:33:58;;;;;;;3.63;2.77;;;16.70;60.10;17.50;101916.00;;;;5037351;28;20207;-45
2024/01/30 09:36:24;;;;;;;3.10;2.80;;;16.70;60.00;17.50;101914.00;;;;5044552;28;20614;-44
2024/01/30 09:38:49;;;;;;;3.77;3.10;;;16.70;60.10;17.50;101913.00;;;;5041756;28;20745;-44
2024/01/30 09:41:15;;;;;;;2.93;2.73;;;16.70;60.10;17.50;101926.00;;;;5044666;28;20201;-45
2024/01/30 09:43:41;;;;;;;2.97;2.60;;;16.60;60.10;17.50;101911.00;;;;5042827;28;20262;-43
2024/01/30 09:46:08;;;;;;;4.23;2.90;;;16.60;60.10;17.50;101928.00;;;;5043118;28;20166;-45
2024/01/30 09:48:34;;;;;;;3.33;3.00;;;16.60;60.10;17.50;101926.00;;;;5041611;28;20220;-44
2024/01/30 09:50:59;;;;;;;2.70;2.50;;;16.60;60.20;17.50;101915.00;;;;5041705;28;20181;-44
2024/01/30 09:53:25;;;;;;;3.40;2.80;;;16.60;60.30;17.50;101927.00;;;;5044719;28;20204;-45
2024/01/30 09:55:51;;;;;;;3.67;2.80;;;16.60;60.30;17.50;101927.00;;;;5018260;28;20182;-45
2024/01/30 09:58:17;;;;;;;4.57;3.00;;;16.50;60.30;17.50;101928.00;;;;5039737;28;20233;-44
2024/01/30 10:00:43;;;;;;;2.90;2.70;;;16.50;60.60;17.50;101931.00;;;;5041167;28;20725;-44
2024/01/30 10:03:09;;;;;;;5.07;3.00;;;16.60;60.70;17.50;101925.00;;;;5040977;28;20181;-44
2024/01/30 10:05:37;;;;;;;3.00;2.70;;;16.60;60.70;17.50;101929.00;;;;5054319;28;20176;-44
2024/01/30 10:08:06;;;;;;;4.40;2.73;;;16.70;60.70;17.60;101925.00;;;;5046268;28;20201;-44
2024/01/30 10:10:31;;;;;;;4.73;2.57;;;16.70;60.50;17.60;101935.00;;;;5039076;28;20172;-44
2024/01/30 10:12:57;;;;;;;3.43;2.80;;;16.80;60.50;17.60;101921.00;;;;5037607;28;20226;-45
2024/01/30 10:15:23;;;;;;;5.10;2.77;;;17.00;60.50;17.70;101931.00;;;;5045609;28;20177;-43
2024/01/30 10:17:49;;;;;;;3.83;2.60;;;17.10;60.30;17.80;101932.00;;;;5042398;28;20202;-48
2024/01/30 10:20:15;;;;;;;3.43;2.60;;;17.30;60.30;17.80;101928.00;;;;5057275;28;20174;-44
2024/01/30 10:22:44;;;;;;;3.43;2.70;;;17.40;60.10;17.90;101924.00;;;;5043571;28;20205;-44
2024/01/30 10:25:10;;;;;;;3.87;2.77;;;17.50;59.90;18.00;101932.00;;;;5032037;28;20186;-44
2024/01/30 10:27:35;;;;;;;3.93;2.40;;;17.60;59.80;18.00;101930.00;;;;5036482;28;20576;-44
2024/01/30 10:30:03;;;;;;;3.90;2.60;;;17.60;59.70;18.10;101925.00;;;;5040594;28;20185;-44
2024/01/30 10:32:29;;;;;;;3.90;2.60;;;17.70;59.80;18.20;101929.00;;;;5043998;28;20753;-44
2024/01/30 10:34:55;;;;;;;2.97;2.67;;;17.70;59.70;18.20;101930.00;;;;5041408;28;20196;-44
2024/01/30 10:37:21;;;;;;;2.77;2.57;;;17.80;59.60;18.30;101937.00;;;;5043464;28;20194;-45
2024/01/30 10:39:46;;;;;;;3.80;2.80;;;17.80;59.90;18.30;101928.00;;;;5040048;28;20221;-45
2024/01/30 10:42:17;;;;;;;3.80;2.60;;;17.90;60.00;18.40;101931.00;;;;5046160;28;20219;-45
2024/01/30 10:45:15;;;;;;;3.43;2.70;;;17.90;60.30;18.40;101926.00;;;;5048876;28;20189;-50
2024/01/30 10:47:49;;;;;;;3.97;2.60;;;17.90;60.80;18.40;101921.00;;;;5039192;28;20289;-45